sensor_id;sensor_type;location;lat;lon;timestamp;pressure;altitude;pressure_sealevel;temperature;humidity
33185;BME280;19550;42.872;25.494;2023-02-02T00:01:46;96261.66;;;-0.60;100.00
33185;BME280;19550;42.872;25.494;2023-02-02T00:04:15;96262.31;;;-0.53;100.00
33185;BME280;19550;42.872;25.494;2023-02-02T00:06:43;96274.44;;;-0.38;100.00
33185;BME280;19550;42.872;25.494;2023-02-02T00:09:13;96263.31;;;-0.37;100.00
33185;BME280;19550;42.872;25.494;2023-02-02T00:11:41;96256.59;;;-0.29;100.00
33185;BME280;19550;42.872;25.494;2023-02-02T00:14:08;96281.69;;;-0.27;100.00
33185;BME280;19550;42.872;25.494;2023-02-02T00:16:43;96258.59;;;-0.47;100.00
33185;BME280;19550;42.872;25.494;2023-02-02T00:19:15;96310.66;;;-0.16;100.00
33185;BME280;19550;42.872;25.494;2023-02-02T00:21:43;96288.50;;;-0.25;100.00
33185;BME280;19550;42.872;25.494;2023-02-02T00:24:11;96287.47;;;-0.19;100.00
33185;BME280;19550;42.872;25.494;2023-02-02T00:26:40;96313.63;;;-0.18;100.00
33185;BME280;19550;42.872;25.494;2023-02-02T00:29:12;96317.19;;;-0.17;100.00
33185;BME280;19550;42.872;25.494;2023-02-02T00:31:39;96286.31;;;-0.28;100.00
33185;BME280;19550;42.872;25.494;2023-02-02T00:44:27;96340.00;;;0.25;100.00
33185;BME280;19550;42.872;25.494;2023-02-02T00:47:12;96338.69;;;0.60;100.00
33185;BME280;19550;42.872;25.494;2023-02-02T00:49:38;96336.31;;;1.47;100.00
33185;BME280;19550;42.872;25.494;2023-02-02T00:52:05;96324.78;;;1.92;100.00
33185;BME280;19550;42.872;25.494;2023-02-02T00:54:32;96321.31;;;2.27;100.00
33185;BME280;19550;42.872;25.494;2023-02-02T00:56:59;96318.34;;;2.44;100.00
33185;BME280;19550;42.872;25.494;2023-02-02T00:59:27;96321.91;;;2.45;100.00
33185;BME280;19550;42.872;25.494;2023-02-02T01:01:54;96323.25;;;2.42;100.00
33185;BME280;19550;42.872;25.494;2023-02-02T01:04:21;96305.50;;;2.60;100.00
33185;BME280;19550;42.872;25.494;2023-02-02T01:06:48;96313.97;;;2.53;100.00
33185;BME280;19550;42.872;25.494;2023-02-02T01:09:15;96310.97;;;2.55;100.00
33185;BME280;19550;42.872;25.494;2023-02-02T01:11:42;96307.13;;;2.35;100.00
33185;BME280;19550;42.872;25.494;2023-02-02T01:14:08;96309.00;;;2.20;100.00
33185;BME280;19550;42.872;25.494;2023-02-02T01:16:37;96304.59;;;2.04;100.00
33185;BME280;19550;42.872;25.494;2023-02-02T01:19:03;96296.34;;;1.93;100.00
33185;BME280;19550;42.872;25.494;2023-02-02T01:21:30;96306.69;;;1.86;100.00
33185;BME280;19550;42.872;25.494;2023-02-02T01:23:57;96317.88;;;1.80;100.00
33185;BME280;19550;42.872;25.494;2023-02-02T01:26:24;96304.75;;;1.72;100.00
33185;BME280;19550;42.872;25.494;2023-02-02T01:28:51;96306.66;;;1.66;100.00
33185;BME280;19550;42.872;25.494;2023-02-02T01:31:19;96311.31;;;1.76;100.00
33185;BME280;19550;42.872;25.494;2023-02-02T01:33:48;96307.50;;;1.77;100.00
33185;BME280;19550;42.872;25.494;2023-02-02T01:36:16;96299.56;;;1.70;100.00
33185;BME280;19550;42.872;25.494;2023-02-02T01:38:44;96304.69;;;1.62;100.00
33185;BME280;19550;42.872;25.494;2023-02-02T01:41:13;96303.88;;;1.61;100.00
33185;BME280;19550;42.872;25.494;2023-02-02T01:43:56;96288.56;;;1.55;100.00
33185;BME280;19550;42.872;25.494;2023-02-02T01:46:25;96286.88;;;1.44;100.00
33185;BME280;19550;42.872;25.494;2023-02-02T01:48:58;96272.13;;;1.45;100.00
33185;BME280;19550;42.872;25.494;2023-02-02T01:51:32;96265.88;;;1.49;100.00
33185;BME280;19550;42.872;25.494;2023-02-02T01:54:02;96261.72;;;1.42;100.00
33185;BME280;19550;42.872;25.494;2023-02-02T01:56:33;96265.53;;;1.41;100.00
33185;BME280;19550;42.872;25.494;2023-02-02T01:59:01;96266.88;;;1.33;100.00
33185;BME280;19550;42.872;25.494;2023-02-02T02:01:29;96254.34;;;1.37;100.00
33185;BME280;19550;42.872;25.494;2023-02-02T02:03:57;96262.00;;;1.40;100.00
33185;BME280;19550;42.872;25.494;2023-02-02T02:06:24;96264.44;;;1.32;100.00
33185;BME280;19550;42.872;25.494;2023-02-02T02:08:54;96255.69;;;1.35;100.00
33185;BME280;19550;42.872;25.494;2023-02-02T02:11:23;96261.16;;;1.40;100.00
33185;BME280;19550;42.872;25.494;2023-02-02T02:13:51;96267.41;;;1.30;100.00
33185;BME280;19550;42.872;25.494;2023-02-02T02:16:49;96265.59;;;1.51;100.00
33185;BME280;19550;42.872;25.494;2023-02-02T02:22:52;96263.38;;;1.38;100.00
33185;BME280;19550;42.872;25.494;2023-02-02T02:25:58;96262.47;;;1.27;100.00
33185;BME280;19550;42.872;25.494;2023-02-02T02:29:16;96252.63;;;1.21;100.00
33185;BME280;19550;42.872;25.494;2023-02-02T02:31:59;96249.63;;;1.23;100.00
33185;BME280;19550;42.872;25.494;2023-02-02T02:34:38;96243.06;;;1.18;100.00
33185;BME280;19550;42.872;25.494;2023-02-02T02:37:11;96261.09;;;1.19;100.00
33185;BME280;19550;42.872;25.494;2023-02-02T02:39:47;96247.97;;;1.16;100.00
33185;BME280;19550;42.872;25.494;2023-02-02T02:42:17;96252.34;;;1.17;100.00
33185;BME280;19550;42.872;25.494;2023-02-02T02:44:47;96247.94;;;1.11;100.00
33185;BME280;19550;42.872;25.494;2023-02-02T02:47:17;96258.78;;;1.01;100.00
33185;BME280;19550;42.872;25.494;2023-02-02T02:49:46;96255.97;;;0.86;100.00
33185;BME280;19550;42.872;25.494;2023-02-02T02:52:13;96258.16;;;0.84;100.00
33185;BME280;19550;42.872;25.494;2023-02-02T02:54:44;96251.91;;;0.94;100.00
33185;BME280;19550;42.872;25.494;2023-02-02T02:57:43;96254.84;;;0.82;100.00
33185;BME280;19550;42.872;25.494;2023-02-02T03:00:27;96237.47;;;0.51;100.00
33185;BME280;19550;42.872;25.494;2023-02-02T03:03:04;96252.66;;;0.79;100.00
33185;BME280;19550;42.872;25.494;2023-02-02T03:05:40;96242.44;;;0.59;100.00
33185;BME280;19550;42.872;25.494;2023-02-02T03:08:14;96247.16;;;0.74;100.00
33185;BME280;19550;42.872;25.494;2023-02-02T03:10:44;96272.28;;;0.81;100.00
33185;BME280;19550;42.872;25.494;2023-02-02T03:13:14;96258.03;;;0.69;100.00
33185;BME280;19550;42.872;25.494;2023-02-02T03:15:42;96253.16;;;0.76;100.00
33185;BME280;19550;42.872;25.494;2023-02-02T03:18:12;96270.06;;;1.15;100.00
33185;BME280;19550;42.872;25.494;2023-02-02T03:20:40;96241.16;;;1.19;100.00
33185;BME280;19550;42.872;25.494;2023-02-02T03:23:08;96255.34;;;1.16;100.00
33185;BME280;19550;42.872;25.494;2023-02-02T03:25:36;96233.63;;;0.94;100.00
33185;BME280;19550;42.872;25.494;2023-02-02T03:28:03;96247.59;;;0.98;100.00
33185;BME280;19550;42.872;25.494;2023-02-02T03:30:33;96270.91;;;1.20;100.00
33185;BME280;19550;42.872;25.494;2023-02-02T03:33:01;96254.53;;;1.20;100.00
33185;BME280;19550;42.872;25.494;2023-02-02T03:35:31;96224.72;;;1.09;100.00
33185;BME280;19550;42.872;25.494;2023-02-02T03:38:37;96244.72;;;1.25;100.00
33185;BME280;19550;42.872;25.494;2023-02-02T03:41:35;96233.09;;;1.44;100.00
33185;BME280;19550;42.872;25.494;2023-02-02T03:44:26;96230.63;;;1.48;100.00
33185;BME280;19550;42.872;25.494;2023-02-02T03:46:59;96274.78;;;1.92;100.00
33185;BME280;19550;42.872;25.494;2023-02-02T03:49:42;96231.84;;;1.87;100.00
33185;BME280;19550;42.872;25.494;2023-02-02T03:52:27;96230.44;;;1.80;100.00
33185;BME280;19550;42.872;25.494;2023-02-02T03:54:56;96262.47;;;1.94;100.00
33185;BME280;19550;42.872;25.494;2023-02-02T03:57:23;96275.66;;;2.13;100.00
33185;BME280;19550;42.872;25.494;2023-02-02T03:59:50;96258.13;;;2.04;100.00
33185;BME280;19550;42.872;25.494;2023-02-02T04:02:25;96242.50;;;1.89;100.00
33185;BME280;19550;42.872;25.494;2023-02-02T04:04:53;96257.00;;;1.89;100.00
33185;BME280;19550;42.872;25.494;2023-02-02T04:07:20;96266.03;;;1.95;100.00
33185;BME280;19550;42.872;25.494;2023-02-02T04:09:48;96242.44;;;1.74;100.00
33185;BME280;19550;42.872;25.494;2023-02-02T04:12:15;96224.97;;;1.65;100.00
33185;BME280;19550;42.872;25.494;2023-02-02T04:14:42;96233.97;;;1.65;100.00
33185;BME280;19550;42.872;25.494;2023-02-02T04:17:09;96231.53;;;1.74;100.00
33185;BME280;19550;42.872;25.494;2023-02-02T04:19:36;96232.34;;;1.69;100.00
33185;BME280;19550;42.872;25.494;2023-02-02T04:22:04;96230.97;;;1.67;100.00
33185;BME280;19550;42.872;25.494;2023-02-02T04:24:31;96241.09;;;1.76;100.00
33185;BME280;19550;42.872;25.494;2023-02-02T04:27:00;96239.25;;;1.97;100.00
33185;BME280;19550;42.872;25.494;2023-02-02T04:29:27;96244.16;;;1.90;100.00
33185;BME280;19550;42.872;25.494;2023-02-02T04:31:55;96256.47;;;2.03;100.00
33185;BME280;19550;42.872;25.494;2023-02-02T04:34:22;96288.19;;;1.98;100.00
33185;BME280;19550;42.872;25.494;2023-02-02T04:40:12;96245.66;;;1.50;100.00
33185;BME280;19550;42.872;25.494;2023-02-02T04:42:46;96235.88;;;1.59;100.00
33185;BME280;19550;42.872;25.494;2023-02-02T04:45:16;96272.25;;;1.80;100.00
33185;BME280;19550;42.872;25.494;2023-02-02T04:47:44;96240.53;;;1.64;100.00
33185;BME280;19550;42.872;25.494;2023-02-02T04:50:11;96258.56;;;1.70;100.00
33185;BME280;19550;42.872;25.494;2023-02-02T04:52:38;96244.84;;;1.45;100.00
33185;BME280;19550;42.872;25.494;2023-02-02T04:55:06;96253.84;;;1.45;100.00
33185;BME280;19550;42.872;25.494;2023-02-02T04:57:33;96248.56;;;1.24;100.00
33185;BME280;19550;42.872;25.494;2023-02-02T05:00:02;96254.03;;;1.29;100.00
33185;BME280;19550;42.872;25.494;2023-02-02T05:02:34;96237.38;;;1.30;100.00
33185;BME280;19550;42.872;25.494;2023-02-02T05:05:10;96229.81;;;1.47;100.00
33185;BME280;19550;42.872;25.494;2023-02-02T05:07:53;96248.66;;;1.44;100.00
33185;BME280;19550;42.872;25.494;2023-02-02T05:10:40;96286.41;;;1.62;100.00
33185;BME280;19550;42.872;25.494;2023-02-02T05:13:24;96255.91;;;1.23;100.00
33185;BME280;19550;42.872;25.494;2023-02-02T05:15:53;96265.16;;;1.17;100.00
33185;BME280;19550;42.872;25.494;2023-02-02T05:18:21;96264.28;;;1.06;100.00
33185;BME280;19550;42.872;25.494;2023-02-02T05:28:36;96248.28;;;0.78;100.00
33185;BME280;19550;42.872;25.494;2023-02-02T05:31:43;96266.38;;;0.94;100.00
33185;BME280;19550;42.872;25.494;2023-02-02T05:34:11;96261.22;;;0.93;100.00
33185;BME280;19550;42.872;25.494;2023-02-02T05:36:39;96295.16;;;1.12;100.00
33185;BME280;19550;42.872;25.494;2023-02-02T05:39:11;96245.88;;;0.87;100.00
33185;BME280;19550;42.872;25.494;2023-02-02T05:42:02;96251.91;;;0.94;100.00
33185;BME280;19550;42.872;25.494;2023-02-02T05:45:09;96285.13;;;1.28;100.00
33185;BME280;19550;42.872;25.494;2023-02-02T05:54:26;96282.16;;;2.02;97.37
33185;BME280;19550;42.872;25.494;2023-02-02T05:56:55;96283.78;;;1.92;100.00
33185;BME280;19550;42.872;25.494;2023-02-02T05:59:29;96311.16;;;2.08;99.70
33185;BME280;19550;42.872;25.494;2023-02-02T06:01:58;96299.19;;;2.34;98.81
33185;BME280;19550;42.872;25.494;2023-02-02T06:04:25;96322.72;;;2.50;99.75
33185;BME280;19550;42.872;25.494;2023-02-02T06:06:52;96316.69;;;2.43;100.00
33185;BME280;19550;42.872;25.494;2023-02-02T06:09:20;96323.81;;;2.49;100.00
33185;BME280;19550;42.872;25.494;2023-02-02T06:11:48;96329.84;;;2.66;96.74
33185;BME280;19550;42.872;25.494;2023-02-02T06:14:15;96318.91;;;3.02;94.42
33185;BME280;19550;42.872;25.494;2023-02-02T06:16:42;96324.91;;;3.44;91.12
33185;BME280;19550;42.872;25.494;2023-02-02T06:19:08;96322.63;;;3.67;91.06
33185;BME280;19550;42.872;25.494;2023-02-02T06:21:35;96321.75;;;3.91;88.02
33185;BME280;19550;42.872;25.494;2023-02-02T06:24:03;96327.34;;;4.25;85.72
33185;BME280;19550;42.872;25.494;2023-02-02T06:26:31;96336.75;;;4.53;83.27
33185;BME280;19550;42.872;25.494;2023-02-02T06:28:58;96335.56;;;4.69;82.71
33185;BME280;19550;42.872;25.494;2023-02-02T06:31:25;96344.03;;;4.73;81.78
33185;BME280;19550;42.872;25.494;2023-02-02T06:33:53;96339.97;;;4.70;81.38
33185;BME280;19550;42.872;25.494;2023-02-02T06:36:21;96337.78;;;4.67;81.15
33185;BME280;19550;42.872;25.494;2023-02-02T06:38:49;96337.34;;;4.50;82.43
33185;BME280;19550;42.872;25.494;2023-02-02T06:41:16;96339.78;;;4.57;81.11
33185;BME280;19550;42.872;25.494;2023-02-02T06:43:46;96331.84;;;4.50;80.96
33185;BME280;19550;42.872;25.494;2023-02-02T06:46:16;96324.44;;;4.46;84.80
33185;BME280;19550;42.872;25.494;2023-02-02T06:48:43;96334.38;;;4.42;82.50
33185;BME280;19550;42.872;25.494;2023-02-02T06:51:10;96333.00;;;4.39;85.36
33185;BME280;19550;42.872;25.494;2023-02-02T06:53:37;96332.69;;;4.51;83.56
33185;BME280;19550;42.872;25.494;2023-02-02T06:56:05;96331.25;;;4.58;85.23
33185;BME280;19550;42.872;25.494;2023-02-02T06:58:33;96329.22;;;4.74;84.97
33185;BME280;19550;42.872;25.494;2023-02-02T07:01:02;96332.97;;;4.88;81.01
33185;BME280;19550;42.872;25.494;2023-02-02T07:03:30;96348.25;;;4.99;80.53
33185;BME280;19550;42.872;25.494;2023-02-02T07:05:57;96354.53;;;5.05;80.04
33185;BME280;19550;42.872;25.494;2023-02-02T07:08:24;96345.97;;;5.11;77.22
33185;BME280;19550;42.872;25.494;2023-02-02T07:10:51;96353.13;;;5.07;77.61
33185;BME280;19550;42.872;25.494;2023-02-02T07:13:18;96322.47;;;4.95;78.40
33185;BME280;19550;42.872;25.494;2023-02-02T07:15:47;96350.81;;;5.25;77.15
33185;BME280;19550;42.872;25.494;2023-02-02T07:18:16;96346.75;;;5.46;75.37
33185;BME280;19550;42.872;25.494;2023-02-02T07:20:42;96353.53;;;5.53;76.04
33185;BME280;19550;42.872;25.494;2023-02-02T07:23:09;96356.38;;;5.72;76.88
33185;BME280;19550;42.872;25.494;2023-02-02T07:25:36;96359.44;;;5.71;75.10
33185;BME280;19550;42.872;25.494;2023-02-02T07:28:03;96365.66;;;5.81;74.53
33185;BME280;19550;42.872;25.494;2023-02-02T07:30:30;96355.28;;;6.02;76.12
33185;BME280;19550;42.872;25.494;2023-02-02T07:32:57;96355.97;;;6.13;76.76
33185;BME280;19550;42.872;25.494;2023-02-02T07:35:26;96359.13;;;6.25;74.13
33185;BME280;19550;42.872;25.494;2023-02-02T07:37:53;96354.22;;;6.22;73.51
33185;BME280;19550;42.872;25.494;2023-02-02T07:40:21;96369.56;;;6.47;76.52
33185;BME280;19550;42.872;25.494;2023-02-02T07:42:48;96371.91;;;6.16;73.73
33185;BME280;19550;42.872;25.494;2023-02-02T07:45:15;96374.47;;;6.07;73.86
33185;BME280;19550;42.872;25.494;2023-02-02T07:47:42;96373.53;;;6.17;72.90
33185;BME280;19550;42.872;25.494;2023-02-02T07:50:09;96374.56;;;6.45;75.20
33185;BME280;19550;42.872;25.494;2023-02-02T07:52:38;96367.16;;;6.64;72.78
33185;BME280;19550;42.872;25.494;2023-02-02T07:55:05;96376.00;;;6.61;74.02
33185;BME280;19550;42.872;25.494;2023-02-02T07:57:32;96370.03;;;6.54;71.35
33185;BME280;19550;42.872;25.494;2023-02-02T07:59:59;96361.69;;;6.40;71.67
33185;BME280;19550;42.872;25.494;2023-02-02T08:02:26;96372.13;;;6.43;73.05
33185;BME280;19550;42.872;25.494;2023-02-02T08:04:53;96359.66;;;6.46;74.15
33185;BME280;19550;42.872;25.494;2023-02-02T08:07:20;96362.97;;;6.48;74.59
33185;BME280;19550;42.872;25.494;2023-02-02T08:09:50;96366.81;;;6.47;74.71
33185;BME280;19550;42.872;25.494;2023-02-02T08:12:17;96362.75;;;6.63;74.53
33185;BME280;19550;42.872;25.494;2023-02-02T08:14:45;96365.81;;;6.61;71.30
33185;BME280;19550;42.872;25.494;2023-02-02T08:17:12;96357.84;;;6.60;74.02
33185;BME280;19550;42.872;25.494;2023-02-02T08:19:39;96376.28;;;6.59;74.31
33185;BME280;19550;42.872;25.494;2023-02-02T08:22:06;96376.00;;;6.61;79.91
33185;BME280;19550;42.872;25.494;2023-02-02T08:24:33;96367.09;;;6.45;76.46
33185;BME280;19550;42.872;25.494;2023-02-02T08:27:06;96380.13;;;6.39;74.02
33185;BME280;19550;42.872;25.494;2023-02-02T08:29:33;96378.13;;;6.45;74.15
33185;BME280;19550;42.872;25.494;2023-02-02T08:32:00;96378.28;;;6.54;77.43
33185;BME280;19550;42.872;25.494;2023-02-02T08:34:27;96379.66;;;6.75;74.04
33185;BME280;19550;42.872;25.494;2023-02-02T08:36:53;96374.06;;;6.99;72.35
33185;BME280;19550;42.872;25.494;2023-02-02T08:39:20;96386.81;;;7.13;71.82
33185;BME280;19550;42.872;25.494;2023-02-02T08:41:47;96375.59;;;7.42;69.43
33185;BME280;19550;42.872;25.494;2023-02-02T08:44:15;96375.16;;;7.68;69.38
33185;BME280;19550;42.872;25.494;2023-02-02T08:46:42;96372.78;;;8.07;67.22
33185;BME280;19550;42.872;25.494;2023-02-02T08:49:10;96367.69;;;8.28;66.01
33185;BME280;19550;42.872;25.494;2023-02-02T08:51:37;96370.13;;;8.16;64.94
33185;BME280;19550;42.872;25.494;2023-02-02T08:54:04;96363.28;;;8.27;63.70
33185;BME280;19550;42.872;25.494;2023-02-02T08:56:30;96349.19;;;8.42;67.38
33185;BME280;19550;42.872;25.494;2023-02-02T08:58:57;96344.06;;;8.49;63.98
33185;BME280;19550;42.872;25.494;2023-02-02T09:01:27;96348.47;;;8.64;62.00
33185;BME280;19550;42.872;25.494;2023-02-02T09:03:55;96344.78;;;8.55;63.34
33185;BME280;19550;42.872;25.494;2023-02-02T09:06:26;96337.09;;;8.52;61.66
33185;BME280;19550;42.872;25.494;2023-02-02T09:08:53;96325.38;;;8.82;63.42
33185;BME280;19550;42.872;25.494;2023-02-02T09:11:20;96326.25;;;8.91;63.25
33185;BME280;19550;42.872;25.494;2023-02-02T09:13:48;96326.38;;;8.50;60.65
33185;BME280;19550;42.872;25.494;2023-02-02T09:16:16;96308.31;;;8.66;65.49
33185;BME280;19550;42.872;25.494;2023-02-02T09:18:45;96311.53;;;8.96;60.92
33185;BME280;19550;42.872;25.494;2023-02-02T09:21:13;96324.47;;;9.09;60.35
33185;BME280;19550;42.872;25.494;2023-02-02T09:23:41;96315.28;;;9.00;58.91
33185;BME280;19550;42.872;25.494;2023-02-02T09:26:10;96315.84;;;8.88;59.50
33185;BME280;19550;42.872;25.494;2023-02-02T09:28:37;96314.72;;;9.11;59.36
33185;BME280;19550;42.872;25.494;2023-02-02T09:31:05;96300.94;;;8.75;57.96
33185;BME280;19550;42.872;25.494;2023-02-02T09:33:33;96302.75;;;8.44;59.42
33185;BME280;19550;42.872;25.494;2023-02-02T09:36:06;96300.69;;;8.22;60.57
33185;BME280;19550;42.872;25.494;2023-02-02T09:38:33;96301.53;;;7.95;59.91
33185;BME280;19550;42.872;25.494;2023-02-02T09:41:00;96299.06;;;7.80;60.56
33185;BME280;19550;42.872;25.494;2023-02-02T09:43:44;96305.91;;;7.69;61.16
33185;BME280;19550;42.872;25.494;2023-02-02T09:46:24;96302.00;;;8.11;63.24
33185;BME280;19550;42.872;25.494;2023-02-02T09:48:59;96294.25;;;8.41;60.08
33185;BME280;19550;42.872;25.494;2023-02-02T09:51:32;96293.22;;;8.86;60.56
33185;BME280;19550;42.872;25.494;2023-02-02T09:54:05;96289.53;;;9.13;56.90
33185;BME280;19550;42.872;25.494;2023-02-02T09:56:40;96282.22;;;9.39;58.79
33185;BME280;19550;42.872;25.494;2023-02-02T09:59:15;96299.06;;;9.51;60.92
33185;BME280;19550;42.872;25.494;2023-02-02T10:01:44;96290.38;;;8.77;57.39
33185;BME280;19550;42.872;25.494;2023-02-02T10:04:15;96284.19;;;8.58;58.90
33185;BME280;19550;42.872;25.494;2023-02-02T10:06:48;96278.31;;;8.73;58.37
33185;BME280;19550;42.872;25.494;2023-02-02T10:09:25;96278.03;;;9.20;59.14
33185;BME280;19550;42.872;25.494;2023-02-02T10:11:58;96279.28;;;9.13;57.03
33185;BME280;19550;42.872;25.494;2023-02-02T10:14:30;96272.03;;;9.48;56.77
33185;BME280;19550;42.872;25.494;2023-02-02T10:17:04;96266.09;;;9.64;55.07
33185;BME280;19550;42.872;25.494;2023-02-02T10:19:35;96258.25;;;9.57;54.07
33185;BME280;19550;42.872;25.494;2023-02-02T10:22:11;96263.66;;;9.62;53.83
33185;BME280;19550;42.872;25.494;2023-02-02T10:24:40;96265.31;;;9.18;53.86
33185;BME280;19550;42.872;25.494;2023-02-02T10:27:12;96246.78;;;9.41;55.48
33185;BME280;19550;42.872;25.494;2023-02-02T10:29:46;96257.28;;;9.31;54.39
33185;BME280;19550;42.872;25.494;2023-02-02T10:32:19;96248.69;;;9.10;54.37
33185;BME280;19550;42.872;25.494;2023-02-02T10:35:00;96247.13;;;8.95;54.51
33185;BME280;19550;42.872;25.494;2023-02-02T10:37:34;96249.25;;;9.21;55.33
33185;BME280;19550;42.872;25.494;2023-02-02T10:40:14;96247.81;;;9.23;54.01
33185;BME280;19550;42.872;25.494;2023-02-02T10:42:55;96246.31;;;9.17;53.59
33185;BME280;19550;42.872;25.494;2023-02-02T10:45:47;96230.56;;;9.26;54.67
33185;BME280;19550;42.872;25.494;2023-02-02T10:48:17;96236.16;;;9.35;55.98
33185;BME280;19550;42.872;25.494;2023-02-02T10:50:47;96229.25;;;9.54;53.28
33185;BME280;19550;42.872;25.494;2023-02-02T10:53:16;96212.06;;;9.66;53.39
33185;BME280;19550;42.872;25.494;2023-02-02T10:55:48;96210.97;;;9.45;53.01
33185;BME280;19550;42.872;25.494;2023-02-02T10:58:23;96194.00;;;9.29;51.35
33185;BME280;19550;42.872;25.494;2023-02-02T11:00:53;96198.09;;;9.40;58.13
33185;BME280;19550;42.872;25.494;2023-02-02T11:03:25;96198.88;;;9.72;52.48
33185;BME280;19550;42.872;25.494;2023-02-02T11:05:53;96193.19;;;9.68;50.85
33185;BME280;19550;42.872;25.494;2023-02-02T11:08:40;96180.53;;;9.84;56.47
33185;BME280;19550;42.872;25.494;2023-02-02T11:11:11;96176.50;;;9.90;54.06
33185;BME280;19550;42.872;25.494;2023-02-02T11:13:41;96174.13;;;9.67;52.30
33185;BME280;19550;42.872;25.494;2023-02-02T11:16:20;96180.34;;;9.72;52.64
33185;BME280;19550;42.872;25.494;2023-02-02T11:18:47;96186.41;;;9.83;53.49
33185;BME280;19550;42.872;25.494;2023-02-02T11:21:18;96184.22;;;9.71;52.61
33185;BME280;19550;42.872;25.494;2023-02-02T11:23:52;96177.19;;;9.56;54.63
33185;BME280;19550;42.872;25.494;2023-02-02T11:26:21;96169.38;;;9.50;51.19
33185;BME280;19550;42.872;25.494;2023-02-02T11:28:49;96167.84;;;9.83;52.14
33185;BME280;19550;42.872;25.494;2023-02-02T11:31:34;96160.38;;;10.01;50.45
33185;BME280;19550;42.872;25.494;2023-02-02T11:34:16;96149.25;;;9.84;51.66
33185;BME280;19550;42.872;25.494;2023-02-02T11:37:11;96146.84;;;9.91;49.80
33185;BME280;19550;42.872;25.494;2023-02-02T11:39:39;96136.28;;;10.02;51.99
33185;BME280;19550;42.872;25.494;2023-02-02T11:42:11;96135.31;;;10.15;50.50
33185;BME280;19550;42.872;25.494;2023-02-02T11:44:39;96122.78;;;10.17;52.25
33185;BME280;19550;42.872;25.494;2023-02-02T11:47:17;96145.63;;;9.66;48.70
33185;BME280;19550;42.872;25.494;2023-02-02T11:49:44;96141.69;;;9.50;50.02
33185;BME280;19550;42.872;25.494;2023-02-02T11:52:15;96128.06;;;9.71;50.92
33185;BME280;19550;42.872;25.494;2023-02-02T11:54:48;96131.53;;;9.93;49.43
33185;BME280;19550;42.872;25.494;2023-02-02T11:57:18;96119.69;;;10.10;49.76
33185;BME280;19550;42.872;25.494;2023-02-02T11:59:47;96113.03;;;10.54;49.28
33185;BME280;19550;42.872;25.494;2023-02-02T12:02:25;96103.75;;;10.50;48.34
33185;BME280;19550;42.872;25.494;2023-02-02T12:04:54;96107.00;;;10.69;47.81
33185;BME280;19550;42.872;25.494;2023-02-02T12:07:25;96088.88;;;10.72;48.20
33185;BME280;19550;42.872;25.494;2023-02-02T12:09:57;96097.22;;;10.63;47.21
33185;BME280;19550;42.872;25.494;2023-02-02T12:12:39;96111.72;;;10.60;47.18
33185;BME280;19550;42.872;25.494;2023-02-02T12:15:18;96097.22;;;10.63;48.00
33185;BME280;19550;42.872;25.494;2023-02-02T12:17:48;96096.91;;;10.30;49.68
33185;BME280;19550;42.872;25.494;2023-02-02T12:20:25;96097.19;;;10.12;48.54
33185;BME280;19550;42.872;25.494;2023-02-02T12:23:09;96091.00;;;9.89;48.78
33185;BME280;19550;42.872;25.494;2023-02-02T12:25:57;96091.63;;;9.86;51.47
33185;BME280;19550;42.872;25.494;2023-02-02T12:28:54;96081.84;;;9.80;48.58
33185;BME280;19550;42.872;25.494;2023-02-02T12:31:28;96086.88;;;9.78;48.51
33185;BME280;19550;42.872;25.494;2023-02-02T12:34:05;96087.06;;;9.73;55.75
33185;BME280;19550;42.872;25.494;2023-02-02T12:36:47;96089.97;;;9.68;51.58
33185;BME280;19550;42.872;25.494;2023-02-02T12:39:21;96081.81;;;9.54;51.00
33185;BME280;19550;42.872;25.494;2023-02-02T12:42:11;96088.63;;;9.48;53.75
33185;BME280;19550;42.872;25.494;2023-02-02T12:44:49;96094.78;;;9.36;53.17
33185;BME280;19550;42.872;25.494;2023-02-02T12:47:24;96077.38;;;8.96;63.14
33185;BME280;19550;42.872;25.494;2023-02-02T12:50:13;96101.41;;;8.65;60.13
33185;BME280;19550;42.872;25.494;2023-02-02T12:53:01;96158.25;;;8.35;56.55
33185;BME280;19550;42.872;25.494;2023-02-02T12:55:38;96204.53;;;7.34;75.47
33185;BME280;19550;42.872;25.494;2023-02-02T12:58:17;96215.94;;;6.81;83.47
33185;BME280;19550;42.872;25.494;2023-02-02T13:01:06;96243.91;;;6.37;91.42
33185;BME280;19550;42.872;25.494;2023-02-02T13:03:49;96257.81;;;5.84;97.60
33185;BME280;19550;42.872;25.494;2023-02-02T13:09:36;96271.88;;;5.30;100.00
33185;BME280;19550;42.872;25.494;2023-02-02T13:12:08;96256.38;;;5.15;100.00
33185;BME280;19550;42.872;25.494;2023-02-02T13:14:40;96250.69;;;5.07;100.00
33185;BME280;19550;42.872;25.494;2023-02-02T13:17:10;96241.13;;;4.99;100.00
33185;BME280;19550;42.872;25.494;2023-02-02T13:19:40;96220.28;;;4.98;100.00
33185;BME280;19550;42.872;25.494;2023-02-02T13:22:12;96190.56;;;4.76;100.00
33185;BME280;19550;42.872;25.494;2023-02-02T13:24:42;96206.44;;;5.08;100.00
33185;BME280;19550;42.872;25.494;2023-02-02T13:27:13;96202.59;;;5.33;100.00
33185;BME280;19550;42.872;25.494;2023-02-02T13:29:44;96190.03;;;5.51;100.00
33185;BME280;19550;42.872;25.494;2023-02-02T13:32:17;96198.44;;;5.59;100.00
33185;BME280;19550;42.872;25.494;2023-02-02T13:34:50;96211.69;;;5.76;100.00
33185;BME280;19550;42.872;25.494;2023-02-02T13:37:24;96224.22;;;5.87;100.00
33185;BME280;19550;42.872;25.494;2023-02-02T13:39:55;96212.81;;;5.75;100.00
33185;BME280;19550;42.872;25.494;2023-02-02T13:42:31;96232.75;;;5.86;100.00
33185;BME280;19550;42.872;25.494;2023-02-02T13:45:14;96234.41;;;5.39;100.00
33185;BME280;19550;42.872;25.494;2023-02-02T13:47:48;96242.56;;;5.49;100.00
33185;BME280;19550;42.872;25.494;2023-02-02T13:50:19;96247.44;;;5.52;100.00
33185;BME280;19550;42.872;25.494;2023-02-02T13:53:09;96251.22;;;5.33;100.00
33185;BME280;19550;42.872;25.494;2023-02-02T13:55:55;96277.38;;;5.30;100.00